Погода Сертанзиньюна неделю

Сан-Паулу, Бразилия

25 - 31 июля
  • 25июля
    Сегодня
    +13°
    +31°
    Ясно и безоблачно
    ВремяПогодаТемператураВлажностьДавлениеВетер, м/сВероятность осадков
    00:00Небольшая облачность+17°C50 %715 мм2.1 м/с5 %
    03:00Ясно и безоблачно+15°C54 %714 мм1.8 м/с5 %
    06:00Ясно и безоблачно+14°C62 %714 мм1.8 м/с5 %
    09:00Ясно и безоблачно+19°C43 %716 мм2.3 м/с5 %
    12:00Ясно и безоблачно+28°C26 %717 мм2.7 м/с5 %
    15:00Ясно и безоблачно+30°C23 %714 мм2.2 м/с5 %
    18:00Ясно и безоблачно+26°C28 %713 мм2.0 м/с5 %
    21:00Ясно и безоблачно+21°C40 %713 мм1.8 м/с5 %
  • 26июля
    Пятница
    +13°
    +30°
    Облачно с прояснениями
    ВремяПогодаТемператураВлажностьДавлениеВетер, м/сВероятность осадков
    00:00Ясно и безоблачно+17°C49 %713 мм1.8 м/с5 %
    03:00Ясно и безоблачно+15°C53 %712 мм1.8 м/с5 %
    06:00Ясно и безоблачно+14°C57 %712 мм2.0 м/с5 %
    09:00Практически безоблачно+19°C43 %715 мм2.4 м/с5 %
    12:00Облачно с прояснениями+28°C25 %715 мм2.8 м/с5 %
    15:00Облачно с прояснениями+30°C22 %713 мм2.6 м/с5 %
    18:00Облачно с прояснениями+27°C31 %713 мм2.2 м/с5 %
    21:00Облачно с прояснениями+21°C40 %713 мм2.0 м/с5 %
  • 27июля
    Суббота
    +15°
    +32°
    Ясно и безоблачно
    ВремяПогодаТемператураВлажностьДавлениеВетер, м/сВероятность осадков
    00:00Облачно с прояснениями+18°C44 %713 мм2.1 м/с5 %
    03:00Небольшая облачность+16°C49 %711 мм2.1 м/с5 %
    06:00Облачно с прояснениями+14°C57 %712 мм2.0 м/с5 %
    09:00Небольшая облачность+20°C40 %714 мм2.6 м/с5 %
    12:00Практически безоблачно+30°C23 %715 мм2.9 м/с5 %
    15:00Ясно и безоблачно+32°C21 %713 мм2.4 м/с5 %
    18:00Ясно и безоблачно+29°C34 %713 мм1.5 м/с5 %
    21:00Ясно и безоблачно+22°C39 %713 мм2.0 м/с5 %
  • 28июля
    Воскресенье
    +16°
    +33°
    Ясно и безоблачно
    ВремяПогодаТемператураВлажностьДавлениеВетер, м/сВероятность осадков
    00:00Ясно и безоблачно+19°C45 %713 мм2.1 м/с5 %
    03:00Ясно и безоблачно+17°C49 %712 мм2.1 м/с5 %
    06:00Ясно и безоблачно+15°C52 %712 мм2.0 м/с5 %
    09:00Ясно и безоблачно+21°C39 %714 мм2.6 м/с5 %
    12:00Ясно и безоблачно+31°C23 %715 мм3.5 м/с5 %
    15:00Ясно и безоблачно+33°C21 %713 мм2.9 м/с5 %
    18:00Ясно и безоблачно+30°C31 %713 мм2.0 м/с5 %
    21:00Ясно и безоблачно+24°C35 %713 мм1.6 м/с5 %
  • 29июля
    Понедельник
    +14°
    +33°
    Ясно и безоблачно
    ВремяПогодаТемператураВлажностьДавлениеВетер, м/сВероятность осадков
    00:00Ясно и безоблачно+21°C44 %713 мм2.3 м/с5 %
    03:00Ясно и безоблачно+18°C52 %712 мм1.9 м/с5 %
    06:00Ясно и безоблачно+17°C61 %712 мм1.8 м/с5 %
    09:00Ясно и безоблачно+23°C41 %714 мм2.1 м/с5 %
    12:00Ясно и безоблачно+32°C27 %715 мм4.5 м/с5 %
    15:00Ясно и безоблачно+33°C23 %713 мм4.2 м/с5 %
    18:00Ясно и безоблачно+30°C28 %713 мм2.4 м/с5 %
    21:00Небольшая облачность+25°C35 %712 мм1.7 м/с7 %
Мы используем cookies
Соглашаюсь